Aeroporto :
LOGIN :

Iscrizione | Disclaimer

   EN    FR    IT 

 










Sommario :    VFR   VFR Marginale   IFR   IFR Intensivo   IFR Molto Intensivo
Visibilità : 
Base nubi : 
>= 8 km
>= 3000ft
5 / 8 km
1000 / 3000 ft
1500m / 5 km
500 / 1000 ft
800 / 1500m
200 / 500 ft
< 800m
< 200 ft
Simboli :   Temporali  Nebbia  Neve Forte  Precipitazioni Forti  Vento > 20 kt
SIGMETs :   Varie  Temporali  Ghiacco  Turbolenza  Onda orograficha  Ceneri Vulcaniche






- Altitudine del aeroporto : 63 ft
- Codice IATA : BZM


EHWO - Woensdrecht Airbase

ULTIMO METAR :
  • 011155Z AUTO VRB04KT 9999 FEW045 09/M01 Q1021 BLU BECMG 33005KT

METARs OBSOLETI :
  • 011125Z AUTO VRB04KT 9999 NCD 08/M02 Q1022 BLU BECMG 33005KT
  • 011055Z AUTO VRB03KT 9999 NCD 08/M03 Q1022 BLU BECMG 33005KT
  • 011035Z AUTO VRB05KT 9999 NCD 08/M02 Q1023 BLU BECMG 33005KT
  • 011025Z AUTO VRB04KT 9999 NCD 08/M03 Q1023 BLU NOSIG
  • 010955Z AUTO 35004KT 280V080 9999 NCD 08/M03 Q1023 BLU NOSIG
  • 010925Z AUTO 06004KT 010V150 9999 NCD 07/M03 Q1024 BLU NOSIG

TAF TAF EHWO
Valido dal 01 a 09 ore il 01 a 21 ore UTC


010823Z 0109/0121 VRB03KT 9999 FEW040
BECMG 0110/0112 33005KT



MetMap, La meteo Aeronautica in un colpo d'occhio ! - Copyright ORBIFLY Dicembre 2007 - Disclaimer

ORBIFLY MET'MAP TEAM :

Programmazione e sviluppo : Alexandra Zaïnal
Concezione : Baudouin d'Aumeries
Aiuto per la programmazione : Marc-Olivier Méhu
Supporto tecnico e logistico : Manuel Goepfert
Aiuto per la traduzione : Arnaldo La Scala

Contatto : metmap@orbifly.com




FONTI E CREDITI :

   NOAA